Time;durP1;ratioP1;P1;durP2;ratioP2;P2;SDS_P1;SDS_P2;PMS_P1;PMS_P2;Temp;Humidity;BMP_temperature;BMP_pressure;BME280_temperature;BME280_humidity;BME280_pressure;Samples;Min_cycle;Max_cycle;Signal;HPM_P1;HPM_P2
2022/06/01 00:01:53;;;;;;;0.10;0.10;;;13.20;99.90;;;;;;5031483;28;20036;-71
2022/06/01 00:04:20;;;;;;;0.13;0.13;;;13.00;99.90;;;;;;5031723;28;20116;-71
2022/06/01 00:06:45;;;;;;;0.20;0.20;;;13.10;99.90;;;;;;5031498;28;20541;-71
2022/06/01 00:09:12;;;;;;;0.20;0.20;;;13.10;99.90;;;;;;5030420;28;20114;-70
2022/06/01 00:11:37;;;;;;;0.10;0.10;;;13.10;99.90;;;;;;5031756;28;20122;-72
2022/06/01 00:14:04;;;;;;;0.10;0.10;;;13.00;99.90;;;;;;5031821;28;20424;-70
2022/06/01 00:16:30;;;;;;;0.20;0.20;;;12.90;99.90;;;;;;5030309;28;20546;-71
2022/06/01 00:18:56;;;;;;;0.55;0.55;;;12.90;99.90;;;;;;5030357;28;20021;-71
2022/06/01 00:21:22;;;;;;;0.30;0.30;;;12.80;99.90;;;;;;5031511;28;20079;-71
2022/06/01 00:23:48;;;;;;;0.30;0.30;;;12.70;99.90;;;;;;5031543;28;20030;-71
2022/06/01 00:26:14;;;;;;;0.10;0.10;;;12.70;99.90;;;;;;5031763;28;20049;-70
2022/06/01 00:28:39;;;;;;;0.30;0.30;;;12.70;99.90;;;;;;5042732;28;20384;-71
2022/06/01 00:31:05;;;;;;;0.85;0.25;;;12.80;99.90;;;;;;5051371;28;20021;-71
2022/06/01 00:33:31;;;;;;;0.20;0.20;;;12.90;99.90;;;;;;5051440;28;20112;-70
2022/06/01 00:35:56;;;;;;;0.65;0.65;;;13.00;99.90;;;;;;5051270;28;20032;-70
2022/06/01 00:38:22;;;;;;;0.30;0.30;;;12.90;99.90;;;;;;5054533;28;20048;-71
2022/06/01 00:40:48;;;;;;;0.10;0.10;;;12.90;99.90;;;;;;5055089;28;20036;-71
2022/06/01 00:43:21;;;;;;;0.32;0.30;;;12.80;99.90;;;;;;5054928;28;20583;-71
2022/06/01 00:45:47;;;;;;;0.50;0.50;;;12.80;99.90;;;;;;5053697;28;20025;-72
2022/06/01 00:48:13;;;;;;;0.15;0.15;;;12.70;99.90;;;;;;5053570;28;20029;-70
2022/06/01 00:50:42;;;;;;;0.10;0.10;;;12.70;99.90;;;;;;5047901;28;20088;-70
2022/06/01 00:53:25;;;;;;;0.30;0.30;;;12.60;99.90;;;;;;5034920;28;20053;-71
2022/06/01 00:55:56;;;;;;;0.10;0.10;;;12.70;99.90;;;;;;5034934;28;20100;-70
2022/06/01 00:58:30;;;;;;;0.20;0.20;;;12.80;99.90;;;;;;5033308;28;20025;-70
2022/06/01 01:00:57;;;;;;;0.85;0.50;;;12.70;99.90;;;;;;5034936;28;20030;-71
2022/06/01 01:03:26;;;;;;;0.30;0.30;;;12.80;99.90;;;;;;5034755;28;20083;-70
2022/06/01 01:06:18;;;;;;;0.30;0.30;;;12.70;99.90;;;;;;5033514;28;20075;-70
2022/06/01 01:08:46;;;;;;;0.25;0.25;;;12.70;99.90;;;;;;5034505;28;20021;-71
2022/06/01 01:11:13;;;;;;;0.10;0.10;;;12.70;99.90;;;;;;5033342;28;20136;-70
2022/06/01 01:13:43;;;;;;;0.43;0.43;;;12.80;99.90;;;;;;5034535;28;20034;-71
2022/06/01 01:16:10;;;;;;;0.20;0.20;;;12.90;99.90;;;;;;5034564;28;20385;-70
2022/06/01 01:18:39;;;;;;;0.20;0.20;;;12.80;99.90;;;;;;5033072;28;20481;-70
2022/06/01 01:21:17;;;;;;;0.30;0.30;;;12.90;99.90;;;;;;5034447;28;20028;-70
2022/06/01 01:24:12;;;;;;;0.20;0.20;;;12.80;99.90;;;;;;5034326;28;20036;-71
2022/06/01 01:26:40;;;;;;;0.40;0.40;;;12.80;99.90;;;;;;5034178;28;20024;-71
2022/06/01 01:29:09;;;;;;;0.22;0.22;;;12.80;99.90;;;;;;5049055;28;20032;-70
2022/06/01 01:31:35;;;;;;;0.10;0.10;;;12.80;99.90;;;;;;5052884;28;20048;-70
2022/06/01 01:34:01;;;;;;;0.17;0.17;;;12.70;99.90;;;;;;5054035;28;20036;-71
2022/06/01 01:36:33;;;;;;;0.10;0.10;;;12.70;99.90;;;;;;5054061;28;20424;-70
2022/06/01 01:39:09;;;;;;;;;;;12.70;99.90;;;;;;5054410;28;20021;-71
2022/06/01 01:41:48;;;;;;;0.32;0.32;;;12.70;99.90;;;;;;5053963;28;20268;-71
2022/06/01 01:44:33;;;;;;;0.30;0.30;;;12.70;99.90;;;;;;5053633;28;20120;-71
2022/06/01 01:46:59;;;;;;;0.20;0.20;;;12.60;99.90;;;;;;5053707;28;20029;-71
2022/06/01 01:49:34;;;;;;;0.20;0.20;;;12.70;99.90;;;;;;5051869;28;20053;-71
2022/06/01 01:52:03;;;;;;;0.15;0.15;;;12.70;99.90;;;;;;5035721;28;20018;-71
2022/06/01 01:54:32;;;;;;;0.20;0.20;;;12.80;99.90;;;;;;5033830;28;20044;-71
2022/06/01 01:57:11;;;;;;;0.28;0.28;;;12.80;99.90;;;;;;5033553;28;20108;-71
2022/06/01 01:59:56;;;;;;;0.45;0.30;;;12.60;99.90;;;;;;5033744;28;20072;-71
2022/06/01 02:02:25;;;;;;;0.20;0.20;;;12.50;99.90;;;;;;5032453;28;20079;-71
2022/06/01 02:08:18;;;;;;;0.17;0.17;;;12.60;99.90;;;;;;5033357;28;20108;-70
2022/06/01 02:13:30;;;;;;;0.10;0.10;;;12.60;99.90;;;;;;5032128;28;20025;-71
2022/06/01 02:15:58;;;;;;;0.20;0.20;;;12.70;99.90;;;;;;5032188;28;20061;-71
2022/06/01 02:18:31;;;;;;;0.30;0.30;;;12.80;99.90;;;;;;5033235;28;20029;-71
2022/06/01 02:21:20;;;;;;;0.10;0.10;;;12.70;99.90;;;;;;5033368;28;20026;-71
2022/06/01 02:23:48;;;;;;;0.10;0.10;;;12.70;99.90;;;;;;5033142;28;20021;-71
2022/06/01 02:26:15;;;;;;;0.10;0.10;;;12.60;99.90;;;;;;5033130;28;20034;-71
2022/06/01 02:28:43;;;;;;;0.13;0.13;;;12.60;99.90;;;;;;5044369;28;20068;-71
2022/06/01 02:31:10;;;;;;;0.10;0.10;;;12.70;99.90;;;;;;5051776;28;20172;-71
2022/06/01 02:33:39;;;;;;;0.32;0.32;;;12.60;99.90;;;;;;5053000;28;20028;-71
2022/06/01 02:36:07;;;;;;;0.10;0.10;;;12.50;99.90;;;;;;5052801;28;20489;-70
2022/06/01 02:38:46;;;;;;;0.47;0.47;;;12.60;99.90;;;;;;5052603;28;20443;-71
2022/06/01 02:43:56;;;;;;;0.10;0.10;;;12.50;99.90;;;;;;5052789;28;20025;-71
2022/06/01 02:46:23;;;;;;;0.30;0.30;;;12.70;99.90;;;;;;5052468;28;20565;-70
2022/06/01 02:48:50;;;;;;;0.10;0.10;;;12.60;99.90;;;;;;5051247;28;20044;-71
2022/06/01 02:51:18;;;;;;;0.10;0.10;;;12.70;99.90;;;;;;5040636;28;20052;-70
2022/06/01 02:53:45;;;;;;;0.28;0.28;;;12.70;99.90;;;;;;5032678;28;20477;-70
2022/06/01 02:56:11;;;;;;;0.20;0.20;;;12.70;99.90;;;;;;5032624;28;20068;-71
2022/06/01 02:58:37;;;;;;;0.13;0.13;;;12.70;99.90;;;;;;5031110;28;20025;-71
2022/06/01 03:01:03;;;;;;;0.10;0.10;;;12.60;99.90;;;;;;5031490;28;20120;-71
2022/06/01 03:03:30;;;;;;;0.30;0.30;;;12.60;99.90;;;;;;5031213;28;20104;-71
2022/06/01 03:05:56;;;;;;;0.10;0.10;;;12.70;99.90;;;;;;5032483;28;20019;-74
2022/06/01 03:08:22;;;;;;;0.20;0.20;;;12.60;99.90;;;;;;5030963;28;20060;-71
2022/06/01 03:10:48;;;;;;;0.15;0.15;;;12.70;99.90;;;;;;5032317;28;20033;-71
2022/06/01 03:13:15;;;;;;;0.20;0.20;;;12.70;99.90;;;;;;5032334;28;20385;-71
2022/06/01 03:15:41;;;;;;;0.20;0.20;;;12.60;99.90;;;;;;5032263;28;20436;-71
2022/06/01 03:18:07;;;;;;;0.10;0.10;;;12.70;99.90;;;;;;5030737;28;20022;-71
2022/06/01 03:20:34;;;;;;;0.20;0.20;;;12.80;99.90;;;;;;5032224;28;20104;-71
2022/06/01 03:23:01;;;;;;;0.10;0.10;;;12.70;99.90;;;;;;5032164;28;20036;-71
2022/06/01 03:25:28;;;;;;;0.10;0.10;;;12.70;99.90;;;;;;5031981;28;20018;-70
2022/06/01 03:27:57;;;;;;;0.20;0.20;;;12.80;99.90;;;;;;5035776;28;20036;-71
2022/06/01 03:30:23;;;;;;;0.10;0.10;;;12.90;99.90;;;;;;5050915;28;20074;-71
2022/06/01 03:32:50;;;;;;;0.20;0.20;;;12.80;99.90;;;;;;5051981;28;20021;-71
2022/06/01 03:35:20;;;;;;;0.13;0.13;;;12.80;99.90;;;;;;5051992;28;20021;-70
2022/06/01 03:37:47;;;;;;;0.20;0.20;;;12.80;99.90;;;;;;5050520;28;20146;-73
2022/06/01 03:40:14;;;;;;;0.17;0.17;;;12.90;99.90;;;;;;5051829;28;20115;-71
2022/06/01 03:42:40;;;;;;;0.10;0.10;;;12.90;99.90;;;;;;5051870;28;20116;-71
2022/06/01 03:47:51;;;;;;;0.20;0.20;;;12.90;99.90;;;;;;5051588;28;20021;-70
2022/06/01 03:50:17;;;;;;;0.10;0.10;;;12.70;99.90;;;;;;5047956;28;20066;-71
2022/06/01 03:52:45;;;;;;;0.20;0.20;;;12.60;99.90;;;;;;5031828;28;20025;-71
2022/06/01 03:55:11;;;;;;;0.22;0.22;;;12.50;99.90;;;;;;5031868;28;20045;-71
2022/06/01 03:57:38;;;;;;;0.20;0.20;;;12.60;99.90;;;;;;5031565;28;20033;-71
2022/06/01 04:00:06;;;;;;;0.20;0.20;;;12.60;99.90;;;;;;5031919;28;20114;-71
2022/06/01 04:02:32;;;;;;;0.20;0.20;;;12.60;99.90;;;;;;5031558;28;20075;-71
2022/06/01 04:05:01;;;;;;;0.10;0.10;;;12.50;99.90;;;;;;5031845;28;20026;-71
2022/06/01 04:07:26;;;;;;;0.20;0.20;;;12.50;99.90;;;;;;5031570;28;20029;-71
2022/06/01 04:09:52;;;;;;;0.20;0.20;;;12.60;99.90;;;;;;5031763;28;20030;-71
2022/06/01 04:12:18;;;;;;;0.10;0.10;;;12.70;99.90;;;;;;5033460;28;20424;-73
2022/06/01 04:14:43;;;;;;;0.20;0.20;;;12.70;99.90;;;;;;5035724;28;20378;-71
2022/06/01 04:17:09;;;;;;;0.20;0.20;;;12.60;99.90;;;;;;5035334;28;20532;-71
2022/06/01 04:19:35;;;;;;;0.20;0.20;;;12.80;99.90;;;;;;5035472;28;20030;-71
2022/06/01 04:22:01;;;;;;;0.20;0.20;;;12.90;99.90;;;;;;5034237;28;20069;-71
2022/06/01 04:24:29;;;;;;;0.20;0.20;;;12.80;99.90;;;;;;5035436;28;20056;-71
2022/06/01 04:26:55;;;;;;;0.13;0.13;;;12.80;99.90;;;;;;5034102;28;20029;-71
2022/06/01 04:29:21;;;;;;;0.10;0.10;;;12.80;99.90;;;;;;5055212;22;20045;-76
2022/06/01 04:31:47;;;;;;;0.20;0.20;;;12.80;99.90;;;;;;5034561;28;20515;-76
2022/06/01 04:34:13;;;;;;;0.10;0.10;;;12.90;99.90;;;;;;5034077;28;20025;-76
2022/06/01 04:36:39;;;;;;;0.20;0.20;;;13.00;99.90;;;;;;5035151;28;20045;-77
2022/06/01 04:39:06;;;;;;;0.10;0.10;;;13.00;99.90;;;;;;5033981;28;20384;-76
2022/06/01 04:41:33;;;;;;;0.10;0.10;;;13.00;99.90;;;;;;5034853;28;20045;-76
2022/06/01 04:43:59;;;;;;;0.10;0.10;;;12.90;99.90;;;;;;5017145;28;20219;-76
2022/06/01 04:46:24;;;;;;;0.10;0.10;;;13.10;99.90;;;;;;5035004;28;20025;-75
2022/06/01 04:48:50;;;;;;;0.10;0.10;;;13.20;99.90;;;;;;5017252;28;20021;-76
2022/06/01 04:51:17;;;;;;;0.10;0.10;;;13.30;99.90;;;;;;5017166;28;20120;-76
2022/06/01 04:53:43;;;;;;;0.10;0.10;;;13.30;99.90;;;;;;5034854;28;20044;-76
2022/06/01 04:56:13;;;;;;;0.20;0.20;;;13.40;99.90;;;;;;5017199;28;20722;-76
2022/06/01 04:58:39;;;;;;;0.20;0.20;;;13.30;99.90;;;;;;5034788;28;20031;-76
2022/06/01 05:01:06;;;;;;;0.20;0.20;;;13.50;99.90;;;;;;5034785;28;20030;-76
2022/06/01 05:03:32;;;;;;;0.10;0.10;;;13.60;99.90;;;;;;5033471;28;20069;-76
2022/06/01 05:05:58;;;;;;;0.13;0.13;;;13.50;99.90;;;;;;5033434;28;20053;-76
2022/06/01 05:08:24;;;;;;;0.45;0.45;;;13.50;99.90;;;;;;5034543;28;20022;-76
2022/06/01 05:10:49;;;;;;;0.20;0.20;;;13.40;99.90;;;;;;5034679;28;20025;-77
2022/06/01 05:13:19;;;;;;;0.43;0.43;;;13.30;99.90;;;;;;5033384;28;20439;-76
2022/06/01 05:15:53;;;;;;;0.17;0.17;;;13.20;99.90;;;;;;5034518;28;20362;-77
2022/06/01 05:18:19;;;;;;;0.10;0.10;;;13.20;99.90;;;;;;5034390;28;20026;-76
2022/06/01 05:20:46;;;;;;;0.30;0.30;;;13.20;99.90;;;;;;5033110;28;20393;-76
2022/06/01 05:23:11;;;;;;;0.30;0.30;;;13.40;99.90;;;;;;5032131;28;20022;-76
2022/06/01 05:25:37;;;;;;;0.15;0.15;;;13.50;99.90;;;;;;5034331;28;20025;-76
2022/06/01 05:28:03;;;;;;;0.10;0.10;;;13.50;99.90;;;;;;5034211;28;20060;-76
2022/06/01 05:30:29;;;;;;;0.10;0.10;;;13.60;99.90;;;;;;5034038;28;20397;-76
2022/06/01 05:32:54;;;;;;;0.30;0.30;;;13.70;99.90;;;;;;5031538;28;20033;-76
2022/06/01 05:35:20;;;;;;;0.13;0.13;;;13.80;99.90;;;;;;5032309;28;20116;-78
2022/06/01 05:37:46;;;;;;;0.38;0.38;;;13.90;99.90;;;;;;5035208;28;20021;-76
2022/06/01 05:40:12;;;;;;;0.20;0.20;;;14.10;99.90;;;;;;5039926;28;20029;-76
2022/06/01 05:42:38;;;;;;;1.05;1.05;;;14.20;99.90;;;;;;5015936;28;20113;-75
2022/06/01 05:45:04;;;;;;;0.10;0.10;;;14.40;99.90;;;;;;5033853;28;20018;-76
2022/06/01 05:47:30;;;;;;;0.40;0.40;;;14.40;99.90;;;;;;5033583;28;20029;-76
2022/06/01 05:49:56;;;;;;;0.20;0.20;;;14.60;99.90;;;;;;5032320;28;20489;-76
2022/06/01 05:52:21;;;;;;;0.20;0.20;;;14.60;99.90;;;;;;5032331;28;20533;-76
2022/06/01 05:54:47;;;;;;;0.52;0.43;;;14.70;99.90;;;;;;5033555;28;20034;-76
2022/06/01 05:57:13;;;;;;;0.10;0.10;;;14.80;99.90;;;;;;5031802;28;20408;-76
2022/06/01 05:59:39;;;;;;;0.10;0.10;;;14.90;99.90;;;;;;5033111;28;20053;-76
2022/06/01 06:02:07;;;;;;;0.30;0.30;;;14.90;99.90;;;;;;5033319;28;20060;-76
2022/06/01 06:04:32;;;;;;;0.17;0.17;;;15.10;99.90;;;;;;5032176;28;20022;-75
2022/06/01 06:06:58;;;;;;;0.20;0.20;;;15.20;99.90;;;;;;5032092;28;20417;-77
2022/06/01 06:09:24;;;;;;;0.10;0.10;;;15.20;99.90;;;;;;5036627;28;20024;-77
2022/06/01 06:11:52;;;;;;;0.65;0.65;;;15.30;99.90;;;;;;5051984;28;20021;-76
2022/06/01 06:14:18;;;;;;;0.20;0.20;;;15.30;99.90;;;;;;5051852;28;20025;-76
2022/06/01 06:16:45;;;;;;;1.50;0.70;;;15.50;99.90;;;;;;5046814;28;20035;-76
2022/06/01 06:19:12;;;;;;;0.10;0.10;;;15.60;99.90;;;;;;5015621;28;20032;-76
2022/06/01 06:21:39;;;;;;;0.43;0.43;;;15.60;99.90;;;;;;5033139;28;20072;-77
2022/06/01 06:24:07;;;;;;;2.28;0.82;;;15.70;99.90;;;;;;5015437;28;20433;-77
2022/06/01 06:26:34;;;;;;;0.30;0.30;;;15.80;99.90;;;;;;5032131;28;20036;-76
2022/06/01 06:29:01;;;;;;;0.17;0.17;;;15.90;99.90;;;;;;5031705;28;20025;-76
2022/06/01 06:31:27;;;;;;;0.80;0.65;;;16.00;99.90;;;;;;5032211;28;20068;-76
2022/06/01 06:33:53;;;;;;;0.35;0.35;;;16.10;99.90;;;;;;5032991;28;20052;-76
2022/06/01 06:36:18;;;;;;;0.30;0.30;;;16.20;99.90;;;;;;5031444;28;20036;-77
2022/06/01 06:38:44;;;;;;;0.10;0.10;;;16.20;99.90;;;;;;5031486;28;20036;-77
2022/06/01 06:41:11;;;;;;;0.73;0.47;;;16.40;99.90;;;;;;5031609;28;20048;-78
2022/06/01 06:43:37;;;;;;;0.28;0.28;;;16.50;99.90;;;;;;5032491;28;20028;-77
2022/06/01 06:46:23;;;;;;;0.57;0.57;;;16.40;99.90;;;;;;5032483;28;20053;-77
2022/06/01 06:48:49;;;;;;;0.57;0.38;;;16.60;99.90;;;;;;5032017;28;20029;-77
2022/06/01 06:51:16;;;;;;;0.63;0.40;;;16.80;99.90;;;;;;5031148;28;20021;-77
2022/06/01 06:53:44;;;;;;;0.47;0.47;;;16.80;99.90;;;;;;5031445;28;20026;-77
2022/06/01 06:56:11;;;;;;;0.55;0.50;;;16.80;99.90;;;;;;5031374;28;20084;-77
2022/06/01 06:58:37;;;;;;;1.00;0.52;;;16.80;99.90;;;;;;5013924;28;20033;-78
2022/06/01 07:01:04;;;;;;;0.20;0.20;;;16.80;99.90;;;;;;5032208;28;20040;-77
2022/06/01 07:03:30;;;;;;;0.10;0.10;;;16.90;99.90;;;;;;5030964;28;20079;-77
2022/06/01 07:06:17;;;;;;;0.10;0.10;;;17.10;99.90;;;;;;5014383;28;20108;-77
2022/06/01 07:08:46;;;;;;;0.10;0.10;;;17.20;99.90;;;;;;5032271;28;20109;-77
2022/06/01 07:11:13;;;;;;;1.92;0.50;;;17.40;99.90;;;;;;5030823;28;20022;-77
2022/06/01 07:13:40;;;;;;;0.13;0.13;;;17.60;99.90;;;;;;5032306;28;20033;-77
2022/06/01 07:16:11;;;;;;;0.20;0.20;;;17.70;99.90;;;;;;5030762;28;20032;-77
2022/06/01 07:18:38;;;;;;;0.63;0.63;;;17.80;99.90;;;;;;5030398;28;20029;-77
2022/06/01 07:21:05;;;;;;;0.40;0.40;;;17.90;99.90;;;;;;5032137;28;20033;-77
2022/06/01 07:23:31;;;;;;;0.55;0.55;;;17.70;99.90;;;;;;5014002;28;20083;-77
2022/06/01 07:25:57;;;;;;;0.13;0.13;;;17.60;99.90;;;;;;5029372;28;20018;-77
2022/06/01 07:28:23;;;;;;;0.10;0.10;;;17.70;99.90;;;;;;5027408;28;20029;-77
2022/06/01 07:30:59;;;;;;;0.65;0.47;;;17.70;99.90;;;;;;5019263;28;20029;-77
2022/06/01 07:33:28;;;;;;;0.10;0.10;;;18.00;99.90;;;;;;5019295;28;20076;-77
2022/06/01 07:35:58;;;;;;;0.32;0.32;;;18.30;99.90;;;;;;5019426;28;20063;-77
2022/06/01 07:44:06;;;;;;;0.45;0.45;;;18.90;99.90;;;;;;5021826;28;21368;-76
2022/06/01 07:46:35;;;;;;;0.10;0.10;;;18.90;99.90;;;;;;5003062;28;20036;-76
2022/06/01 07:49:02;;;;;;;0.08;0.08;;;19.00;99.00;;;;;;5024822;28;20028;-74
2022/06/01 07:51:28;;;;;;;0.30;0.30;;;19.50;98.10;;;;;;5024065;28;20030;-74
2022/06/01 07:53:57;;;;;;;0.55;0.50;;;19.50;98.60;;;;;;5024305;28;20398;-74
2022/06/01 07:56:34;;;;;;;0.22;0.22;;;19.40;97.40;;;;;;5023514;28;20098;-74
2022/06/01 07:59:00;;;;;;;0.20;0.20;;;19.50;96.30;;;;;;5026251;28;20037;-74
2022/06/01 08:01:32;;;;;;;0.10;0.10;;;19.60;95.30;;;;;;5025414;28;20512;-74
2022/06/01 08:04:04;;;;;;;0.10;0.10;;;19.80;95.20;;;;;;5023810;28;20491;-74
2022/06/01 08:06:32;;;;;;;0.10;0.10;;;19.90;94.80;;;;;;5007423;28;20037;-74
2022/06/01 08:09:10;;;;;;;0.00;0.00;;;20.10;94.70;;;;;;5024174;28;20140;-74
2022/06/01 08:14:27;;;;;;;0.20;0.20;;;20.30;92.00;;;;;;5024169;28;20035;-74
2022/06/01 08:16:54;;;;;;;0.60;0.60;;;20.30;92.70;;;;;;5025842;28;20099;-74
2022/06/01 08:19:20;;;;;;;0.57;0.38;;;20.30;92.50;;;;;;5024393;28;20029;-74
2022/06/01 08:21:46;;;;;;;0.10;0.10;;;20.30;91.90;;;;;;5008118;28;20033;-74
2022/06/01 08:24:13;;;;;;;0.20;0.20;;;20.50;91.90;;;;;;5022470;28;20687;-74
2022/06/01 08:26:39;;;;;;;0.10;0.10;;;20.60;90.00;;;;;;5022795;28;20053;-72
2022/06/01 08:29:04;;;;;;;0.10;0.10;;;20.90;86.70;;;;;;5023188;28;20072;-73
2022/06/01 08:31:32;;;;;;;0.10;0.10;;;20.80;84.60;;;;;;5023048;28;20029;-73
2022/06/01 08:33:59;;;;;;;0.10;0.10;;;20.60;83.90;;;;;;5021855;28;20047;-73
2022/06/01 08:36:25;;;;;;;0.10;0.10;;;21.00;82.50;;;;;;5022751;28;20071;-73
2022/06/01 08:38:51;;;;;;;1.35;0.35;;;21.20;77.20;;;;;;5023235;28;20037;-73
2022/06/01 08:41:21;;;;;;;0.10;0.10;;;21.30;75.60;;;;;;5023117;28;20033;-73
2022/06/01 08:43:51;;;;;;;0.20;0.20;;;21.00;76.30;;;;;;5022927;28;20065;-72
2022/06/01 08:46:22;;;;;;;0.50;0.38;;;20.60;77.90;;;;;;5004522;28;20295;-72
2022/06/01 08:48:53;;;;;;;0.10;0.10;;;20.60;76.60;;;;;;5022177;28;20124;-72
2022/06/01 08:51:23;;;;;;;0.20;0.20;;;21.00;76.30;;;;;;5022174;28;20022;-72
2022/06/01 08:53:49;;;;;;;0.10;0.10;;;21.50;74.40;;;;;;5022858;28;20291;-72
2022/06/01 08:56:44;;;;;;;0.00;0.00;;;21.80;74.30;;;;;;5021039;28;20029;-72
2022/06/01 08:59:25;;;;;;;0.00;0.00;;;21.90;73.00;;;;;;5022520;28;20497;-72
2022/06/01 09:02:05;;;;;;;0.10;0.10;;;22.30;72.70;;;;;;5024619;28;20066;-72
2022/06/01 09:04:49;;;;;;;0.08;0.08;;;22.70;72.10;;;;;;5025797;28;20505;-73
2022/06/01 09:07:22;;;;;;;0.00;0.00;;;23.00;66.30;;;;;;5025506;28;20503;-72
2022/06/01 09:09:48;;;;;;;1.45;0.25;;;22.90;66.70;;;;;;5024872;28;20104;-73
2022/06/01 09:12:14;;;;;;;0.10;0.10;;;22.90;62.60;;;;;;5025270;28;20112;-72
2022/06/01 09:14:45;;;;;;;0.00;0.00;;;22.90;64.10;;;;;;5025511;28;20034;-72
2022/06/01 09:17:11;;;;;;;0.00;0.00;;;23.40;64.80;;;;;;5025145;28;20036;-72
2022/06/01 09:22:38;;;;;;;0.73;0.73;;;23.30;62.00;;;;;;5023206;28;20033;-73
2022/06/01 09:25:17;;;;;;;0.00;0.00;;;23.40;64.20;;;;;;5007021;28;20037;-73
2022/06/01 09:27:51;;;;;;;0.55;0.50;;;23.70;61.70;;;;;;5025460;28;20104;-74
2022/06/01 09:30:25;;;;;;;1.10;0.50;;;24.00;59.10;;;;;;5024746;28;20487;-73
2022/06/01 09:33:42;;;;;;;0.30;0.30;;;23.50;59.80;;;;;;5024904;28;20469;-73
2022/06/01 09:36:08;;;;;;;0.17;0.17;;;23.50;62.20;;;;;;4984647;28;20441;-74
2022/06/01 09:38:58;;;;;;;0.30;0.30;;;23.10;62.60;;;;;;5023876;28;20030;-73
2022/06/01 09:41:27;;;;;;;0.10;0.10;;;22.50;63.90;;;;;;5024611;28;20044;-73
2022/06/01 09:43:56;;;;;;;0.00;0.00;;;22.70;65.20;;;;;;5025897;28;20033;-73
2022/06/01 09:46:35;;;;;;;0.10;0.10;;;23.00;61.10;;;;;;5025336;28;20032;-73
2022/06/01 09:49:42;;;;;;;0.10;0.10;;;22.70;62.80;;;;;;5025990;28;20108;-73
2022/06/01 09:52:12;;;;;;;0.00;0.00;;;23.00;62.20;;;;;;5025121;28;20431;-73
2022/06/01 09:54:44;;;;;;;0.10;0.10;;;22.90;63.20;;;;;;5025904;28;20520;-73
2022/06/01 09:57:17;;;;;;;;;;;22.90;60.20;;;;;;5026453;28;20424;-73
2022/06/01 10:08:21;;;;;;;0.10;0.10;;;22.20;64.40;;;;;;5020665;28;20544;-74
2022/06/01 10:11:17;;;;;;;0.10;0.10;;;21.90;63.80;;;;;;5020208;28;20056;-74
2022/06/01 10:14:00;;;;;;;0.38;0.38;;;22.00;63.70;;;;;;5021524;28;20045;-74
2022/06/01 10:16:41;;;;;;;0.10;0.10;;;22.60;63.60;;;;;;5022092;28;20087;-74
2022/06/01 10:19:15;;;;;;;0.10;0.10;;;22.90;62.80;;;;;;5020541;28;20088;-73
2022/06/01 10:21:58;;;;;;;0.03;0.03;;;22.80;63.00;;;;;;5004306;28;20068;-73
2022/06/01 10:24:29;;;;;;;0.22;0.22;;;23.00;63.80;;;;;;5021987;28;20038;-74
2022/06/01 10:26:59;;;;;;;0.00;0.00;;;23.40;62.20;;;;;;5020269;28;20125;-74
2022/06/01 10:29:43;;;;;;;0.77;0.77;;;23.30;61.40;;;;;;5019480;28;20096;-74
2022/06/01 10:32:26;;;;;;;0.00;0.00;;;23.10;60.70;;;;;;5002473;28;20036;-74
2022/06/01 10:35:00;;;;;;;0.10;0.10;;;22.60;61.50;;;;;;5019127;28;20037;-74
2022/06/01 10:37:37;;;;;;;0.10;0.10;;;22.10;62.30;;;;;;5019670;28;20036;-74
2022/06/01 10:40:31;;;;;;;0.00;0.00;;;22.30;63.60;;;;;;5019888;28;20032;-74
2022/06/01 10:43:18;;;;;;;0.10;0.10;;;22.30;64.30;;;;;;5020751;28;20059;-74
2022/06/01 10:45:52;;;;;;;0.30;0.20;;;22.80;64.10;;;;;;5020985;28;20033;-74
2022/06/01 10:48:35;;;;;;;0.25;0.17;;;22.90;62.20;;;;;;5002579;28;20485;-74
2022/06/01 10:51:10;;;;;;;0.10;0.10;;;23.20;61.40;;;;;;5021207;28;20033;-74
2022/06/01 10:56:10;;;;;;;0.80;0.43;;;24.00;58.80;;;;;;5019746;28;20385;-74
2022/06/01 10:58:36;;;;;;;0.00;0.00;;;23.90;58.50;;;;;;5026853;28;20029;-73
2022/06/01 11:01:07;;;;;;;0.20;0.20;;;23.80;58.40;;;;;;5020501;28;20042;-72
2022/06/01 11:03:59;;;;;;;0.00;0.00;;;24.30;57.60;;;;;;5020469;28;20048;-73
2022/06/01 11:06:30;;;;;;;;;;;24.30;57.80;;;;;;5020583;28;20025;-73
2022/06/01 11:09:05;;;;;;;0.80;0.70;;;24.60;57.10;;;;;;5019943;28;20011;-71
2022/06/01 11:11:58;;;;;;;0.00;0.00;;;24.30;56.50;;;;;;5020557;28;20066;-75
2022/06/01 11:14:58;;;;;;;0.00;0.00;;;24.50;57.20;;;;;;5024841;28;20048;-72
2022/06/01 11:17:44;;;;;;;0.05;0.05;;;24.60;56.50;;;;;;5026103;28;20037;-73
2022/06/01 11:20:20;;;;;;;0.60;0.60;;;25.10;57.00;;;;;;5010593;28;20610;-72
2022/06/01 11:23:15;;;;;;;0.10;0.10;;;24.70;55.00;;;;;;5019379;28;20504;-71
2022/06/01 11:26:02;;;;;;;0.00;0.00;;;25.00;57.00;;;;;;5020009;28;20106;-72
2022/06/01 11:28:36;;;;;;;0.52;0.30;;;25.40;56.30;;;;;;5019291;28;20049;-73
2022/06/01 11:31:24;;;;;;;0.00;0.00;;;25.60;54.30;;;;;;5019993;28;20039;-74
2022/06/01 11:34:08;;;;;;;0.08;0.08;;;25.60;55.90;;;;;;5007093;28;20033;-73
2022/06/01 11:36:50;;;;;;;9.23;1.75;;;25.20;55.70;;;;;;5009518;28;20045;-72
2022/06/01 11:39:33;;;;;;;0.10;0.10;;;24.80;56.50;;;;;;5024341;28;20055;-71
2022/06/01 11:42:21;;;;;;;0.05;0.05;;;25.10;55.60;;;;;;4985790;28;20048;-70
2022/06/01 11:45:09;;;;;;;0.17;0.17;;;25.20;54.90;;;;;;5008457;28;20036;-73
2022/06/01 11:48:07;;;;;;;0.00;0.00;;;25.30;54.90;;;;;;5002625;28;20032;-73
2022/06/01 11:50:32;;;;;;;0.10;0.10;;;25.20;55.40;;;;;;5005396;28;20081;-73
2022/06/01 11:53:01;;;;;;;0.05;0.05;;;25.50;54.20;;;;;;5019479;28;20069;-73
2022/06/01 11:55:36;;;;;;;0.00;0.00;;;25.60;53.80;;;;;;5019218;28;20038;-73
2022/06/01 11:58:14;;;;;;;0.50;0.38;;;25.00;54.10;;;;;;5019838;28;20107;-73
2022/06/01 12:00:51;;;;;;;0.10;0.10;;;25.10;55.00;;;;;;5019175;28;20037;-76
2022/06/01 12:03:17;;;;;;;0.00;0.00;;;24.90;54.20;;;;;;5019121;28;20037;-76
2022/06/01 12:06:12;;;;;;;0.00;0.00;;;24.70;56.20;;;;;;5019983;28;20033;-75
2022/06/01 12:08:53;;;;;;;0.10;0.10;;;24.70;56.40;;;;;;5008871;28;20021;-76
2022/06/01 12:11:41;;;;;;;;;;;24.80;55.70;;;;;;5009396;28;20028;-75
2022/06/01 12:14:28;;;;;;;0.10;0.10;;;24.60;55.90;;;;;;5002716;28;19916;-77
2022/06/01 12:17:17;;;;;;;0.08;0.08;;;24.30;56.60;;;;;;5028277;28;20029;-75
2022/06/01 12:19:45;;;;;;;0.10;0.10;;;24.40;56.20;;;;;;5025923;28;20772;-75
2022/06/01 12:28:34;;;;;;;0.10;0.10;;;24.20;57.10;;;;;;5019023;28;20446;-76
2022/06/01 12:31:24;;;;;;;0.00;0.00;;;24.40;56.70;;;;;;5016369;28;20405;-75
2022/06/01 12:34:18;;;;;;;0.10;0.10;;;24.30;56.20;;;;;;4987746;28;20036;-76
2022/06/01 12:36:48;;;;;;;0.00;0.00;;;24.50;56.20;;;;;;5010197;28;20033;-76
2022/06/01 12:39:33;;;;;;;0.10;0.10;;;24.60;55.90;;;;;;5022901;28;20036;-75
2022/06/01 12:42:03;;;;;;;0.05;0.05;;;24.60;56.20;;;;;;5013313;28;20029;-75
2022/06/01 12:44:34;;;;;;;2.13;1.20;;;24.90;55.80;;;;;;5022982;28;20040;-75
2022/06/01 12:47:00;;;;;;;0.90;0.82;;;24.40;54.80;;;;;;5013434;28;20032;-76
2022/06/01 12:49:30;;;;;;;0.10;0.10;;;24.30;55.50;;;;;;5022610;28;20400;-76
2022/06/01 12:52:01;;;;;;;0.00;0.00;;;24.60;56.10;;;;;;5029257;28;20030;-76
2022/06/01 12:54:49;;;;;;;0.77;0.47;;;24.70;54.90;;;;;;5004758;28;20048;-75
2022/06/01 12:57:31;;;;;;;0.00;0.00;;;24.90;54.70;;;;;;5023931;28;20029;-75
2022/06/01 13:00:12;;;;;;;0.03;0.03;;;24.80;54.00;;;;;;5022810;28;20038;-74
2022/06/01 13:02:40;;;;;;;0.10;0.10;;;24.40;54.20;;;;;;5022424;28;20060;-75
2022/06/01 13:05:10;;;;;;;0.32;0.32;;;23.80;56.40;;;;;;5013153;28;20044;-74
2022/06/01 13:07:43;;;;;;;0.13;0.13;;;24.00;55.40;;;;;;5011232;28;20045;-76
2022/06/01 13:10:19;;;;;;;0.28;0.22;;;24.10;56.10;;;;;;5022615;28;20527;-75
2022/06/01 13:12:45;;;;;;;0.40;0.20;;;24.00;55.40;;;;;;5022415;28;20104;-75
2022/06/01 13:15:13;;;;;;;0.00;0.00;;;24.00;55.60;;;;;;5022138;28;20060;-75
2022/06/01 13:17:52;;;;;;;0.25;0.25;;;24.00;55.90;;;;;;5022747;28;20029;-75
2022/06/01 13:20:44;;;;;;;1.25;0.55;;;24.10;55.80;;;;;;5023496;28;20026;-75
2022/06/01 13:23:42;;;;;;;0.10;0.10;;;23.80;55.60;;;;;;5022067;28;20036;-76
2022/06/01 13:26:11;;;;;;;0.10;0.10;;;23.70;55.80;;;;;;4981766;28;20425;-75
2022/06/01 13:28:37;;;;;;;0.00;0.00;;;23.70;55.80;;;;;;5012756;28;20025;-75
2022/06/01 13:31:04;;;;;;;0.00;0.00;;;23.90;56.40;;;;;;5004340;28;20485;-75
2022/06/01 13:33:39;;;;;;;0.05;0.05;;;23.80;56.20;;;;;;5010785;28;20148;-75
2022/06/01 13:36:09;;;;;;;0.20;0.20;;;24.00;56.80;;;;;;5021739;28;20025;-75
2022/06/01 13:38:50;;;;;;;0.10;0.10;;;23.90;56.30;;;;;;4995123;28;20041;-75
2022/06/01 13:41:22;;;;;;;4.90;0.60;;;23.70;57.30;;;;;;4995080;28;20375;-75
2022/06/01 13:43:49;;;;;;;0.40;0.20;;;23.60;56.00;;;;;;5021499;28;20036;-75
2022/06/01 13:46:40;;;;;;;0.10;0.10;;;23.70;56.00;;;;;;5028882;28;20037;-75
2022/06/01 13:49:11;;;;;;;0.50;0.50;;;23.60;55.90;;;;;;5001560;28;20037;-76
2022/06/01 13:51:47;;;;;;;1.08;0.30;;;23.60;55.60;;;;;;5010375;28;20033;-75